CheckWX is a tool to help pilots better visualize weather data.  It is not intended as a substitute for an official pre-flight weather briefing.

03:55:38 UTC

KGMJ METAR
Grove Municipal Airport
Grove, Oklahoma, USA
Current

21 mins ago

KGMJ 070335Z AUTO 16004KT 10SM SCT044 18/14 A2993 RMK AO2
Observed
Apr-7 @ 03:35 UTC
Wind
  • 160° at 4 KTS
Visibility
Flight Rules
VFR
Cloud Levels
  • Scattered at 4,400' AGL
Temperature
18°C / 64°F
Dewpoint
14°C / 57°F
Humidity
78%
Altimeter
29.93" Hg
Pressure
1013.52 hPa
Previous

41 mins ago

KGMJ 070315Z AUTO 16004KT 10SM BKN046 19/15 A2994 RMK AO2
Observed
Apr-7 @ 03:15 UTC
Wind
  • 160° at 4 KTS
Visibility
Flight Rules
VFR
Cloud Levels
  • Broken at 4,600' AGL
Temperature
19°C / 66°F
Dewpoint
15°C / 59°F
Humidity
78%
Altimeter
29.94" Hg
Pressure
1013.92 hPa
Previous

1 hour ago

KGMJ 070255Z AUTO 16005KT 10SM OVC048 20/15 A2994 RMK AO2
Observed
Apr-7 @ 02:55 UTC
Wind
  • 160° at 5 KTS
Visibility
Flight Rules
VFR
Cloud Levels
  • Overcast at 4,800' AGL
Temperature
20°C / 68°F
Dewpoint
15°C / 59°F
Humidity
73%
Altimeter
29.94" Hg
Pressure
1013.92 hPa